createdAt,value
2023-05-09T00:01:20.893Z,31.13
2023-05-09T00:03:47.797Z,32.13
2023-05-09T00:06:15.332Z,32.38
2023-05-09T00:08:42.405Z,29.80
2023-05-09T00:11:09.082Z,26.95
2023-05-09T00:13:35.764Z,28.85
2023-05-09T00:16:03.467Z,29.42
2023-05-09T00:18:31.356Z,28.40
2023-05-09T00:20:58.383Z,28.30
2023-05-09T00:23:25.199Z,30.05
2023-05-09T00:25:51.794Z,32.58
2023-05-09T00:28:18.563Z,32.88
2023-05-09T00:30:45.460Z,31.25
2023-05-09T00:33:12.397Z,31.25
2023-05-09T00:35:39.440Z,31.23
2023-05-09T00:38:07.220Z,32.03
2023-05-09T00:40:34.195Z,32.70
2023-05-09T00:43:00.900Z,32.83
2023-05-09T00:45:27.757Z,33.13
2023-05-09T00:47:54.402Z,35.33
2023-05-09T00:50:21.313Z,33.90
2023-05-09T00:52:48.040Z,36.42
2023-05-09T00:55:16.085Z,33.78
2023-05-09T00:57:43.022Z,34.05
2023-05-09T01:00:13.585Z,35.80
2023-05-09T01:02:45.382Z,36.15
2023-05-09T01:05:12.401Z,36.95
2023-05-09T01:08:01.955Z,37.85
2023-05-09T01:10:51.128Z,37.70
2023-05-09T01:13:32.946Z,38.22
2023-05-09T01:16:15.415Z,37.58
2023-05-09T01:19:00.393Z,38.80
2023-05-09T01:21:29.266Z,39.42
2023-05-09T01:24:15.782Z,37.50
2023-05-09T01:26:57.330Z,36.15
2023-05-09T01:29:35.932Z,37.42
2023-05-09T01:32:06.296Z,37.03
2023-05-09T01:34:34.891Z,35.40
2023-05-09T01:37:04.977Z,35.15
2023-05-09T01:39:33.305Z,34.10
2023-05-09T01:42:03.214Z,34.10
2023-05-09T01:44:33.699Z,34.78
2023-05-09T01:47:01.286Z,36.25
2023-05-09T01:49:29.631Z,35.42
2023-05-09T01:51:56.558Z,35.83
2023-05-09T01:54:26.104Z,35.65
2023-05-09T01:56:54.855Z,36.88
2023-05-09T01:59:22.844Z,36.17
2023-05-09T02:01:50.580Z,35.45
2023-05-09T02:04:18.037Z,36.75
2023-05-09T02:06:49.541Z,36.88
2023-05-09T02:09:16.320Z,36.08
2023-05-09T02:11:43.013Z,36.20
2023-05-09T02:14:09.836Z,37.53
2023-05-09T02:16:36.809Z,36.90
2023-05-09T02:19:03.636Z,37.17
2023-05-09T02:21:30.669Z,37.40
2023-05-09T02:23:57.793Z,37.40
2023-05-09T02:26:25.774Z,36.92
2023-05-09T02:28:53.254Z,38.45
2023-05-09T02:31:20.920Z,37.78
2023-05-09T02:33:51.328Z,36.88
2023-05-09T02:36:18.832Z,35.53
2023-05-09T02:38:45.856Z,34.53
2023-05-09T02:41:16.090Z,33.92
2023-05-09T02:43:42.878Z,34.50
2023-05-09T02:46:09.842Z,34.15
2023-05-09T02:48:37.483Z,32.60
2023-05-09T02:51:05.095Z,31.98
2023-05-09T02:53:31.681Z,30.08
2023-05-09T02:55:58.510Z,29.70
2023-05-09T02:58:25.258Z,30.08
2023-05-09T03:00:51.985Z,28.45
2023-05-09T03:03:19.117Z,28.38
2023-05-09T03:05:46.311Z,28.38
2023-05-09T03:08:12.977Z,28.40
2023-05-09T03:10:39.671Z,31.05
2023-05-09T03:13:06.372Z,30.17
2023-05-09T03:15:33.262Z,29.05
2023-05-09T03:18:00.319Z,28.27
2023-05-09T03:20:27.793Z,29.50
2023-05-09T03:22:54.799Z,29.85
2023-05-09T03:25:22.215Z,30.58
2023-05-09T03:27:48.811Z,29.10
2023-05-09T03:30:16.189Z,29.02
2023-05-09T03:32:44.784Z,29.60
2023-05-09T03:35:11.624Z,30.30
2023-05-09T03:37:38.293Z,29.02
2023-05-09T03:40:07.655Z,30.65
2023-05-09T03:42:40.486Z,29.08
2023-05-09T03:45:07.815Z,29.50
2023-05-09T03:47:34.605Z,28.98
2023-05-09T03:50:01.465Z,28.08
2023-05-09T03:52:28.878Z,28.88
2023-05-09T03:54:55.907Z,29.13
2023-05-09T03:57:22.683Z,29.15
2023-05-09T03:59:51.285Z,30.27
2023-05-09T04:02:18.336Z,29.10
2023-05-09T04:04:47.213Z,29.70
2023-05-09T04:07:14.414Z,29.63
2023-05-09T04:09:42.745Z,29.73
2023-05-09T04:12:09.416Z,28.38
2023-05-09T04:14:36.177Z,29.55
2023-05-09T04:17:02.893Z,29.40
2023-05-09T04:19:29.813Z,29.20
2023-05-09T04:21:56.632Z,28.80
2023-05-09T04:24:23.274Z,29.77
2023-05-09T04:26:50.978Z,29.88
2023-05-09T04:29:21.219Z,28.90
2023-05-09T04:31:52.760Z,29.60
2023-05-09T04:34:20.565Z,28.85
2023-05-09T04:36:47.801Z,29.83
2023-05-09T04:39:14.551Z,28.50
2023-05-09T04:41:50.834Z,28.50
2023-05-09T04:44:18.465Z,28.58
2023-05-09T04:46:45.584Z,28.88
2023-05-09T04:49:12.287Z,29.00
2023-05-09T04:51:38.849Z,27.83
2023-05-09T04:54:06.698Z,28.92
2023-05-09T04:56:36.827Z,27.10
2023-05-09T04:59:03.652Z,27.80
2023-05-09T05:01:30.872Z,28.13
2023-05-09T05:03:58.182Z,28.27
2023-05-09T05:06:24.862Z,28.00
2023-05-09T05:08:51.475Z,28.05
2023-05-09T05:11:18.494Z,28.38
2023-05-09T05:13:45.699Z,28.10
2023-05-09T05:16:12.390Z,27.52
2023-05-09T05:18:39.648Z,26.95
2023-05-09T05:21:06.519Z,25.85
2023-05-09T05:23:33.247Z,27.00
2023-05-09T05:25:59.940Z,26.55
2023-05-09T05:28:27.616Z,26.83
2023-05-09T05:30:54.510Z,25.83
2023-05-09T05:33:21.107Z,25.15
2023-05-09T05:35:48.052Z,25.48
2023-05-09T05:38:14.848Z,25.13
2023-05-09T05:40:43.169Z,24.20
2023-05-09T05:43:10.686Z,23.92
2023-05-09T05:45:38.928Z,23.58
2023-05-09T05:48:08.260Z,22.20
2023-05-09T05:50:36.467Z,21.05
2023-05-09T05:53:04.124Z,20.40
2023-05-09T05:55:30.922Z,20.15
2023-05-09T05:57:57.682Z,20.05
2023-05-09T06:00:25.272Z,19.45
2023-05-09T06:02:59.446Z,19.55
2023-05-09T06:05:44.112Z,18.77
2023-05-09T06:08:11.517Z,18.73
2023-05-09T06:10:38.108Z,17.98
2023-05-09T06:13:04.769Z,17.48
2023-05-09T06:15:31.984Z,16.70
2023-05-09T06:17:59.289Z,16.10
2023-05-09T06:20:25.971Z,16.10
2023-05-09T06:22:52.625Z,15.40
2023-05-09T06:25:19.234Z,16.15
2023-05-09T06:27:45.823Z,14.50
2023-05-09T06:30:24.657Z,13.75
2023-05-09T06:32:53.804Z,14.32
2023-05-09T06:35:20.793Z,13.88
2023-05-09T06:37:48.854Z,13.98
2023-05-09T06:40:16.303Z,13.05
2023-05-09T06:42:42.873Z,13.73
2023-05-09T06:45:09.935Z,13.57
2023-05-09T06:47:36.843Z,12.90
2023-05-09T06:50:03.706Z,12.18
2023-05-09T06:52:30.375Z,12.88
2023-05-09T06:54:56.967Z,12.88
2023-05-09T06:57:23.624Z,14.30
2023-05-09T06:59:50.606Z,14.35
2023-05-09T07:02:17.279Z,13.75
2023-05-09T07:04:43.960Z,14.10
2023-05-09T07:07:10.787Z,12.65
2023-05-09T07:09:37.383Z,12.48
2023-05-09T07:12:04.269Z,11.63
2023-05-09T07:14:30.871Z,11.10
2023-05-09T07:17:09.790Z,10.90
2023-05-09T07:19:41.248Z,10.60
2023-05-09T07:22:07.897Z,9.73
2023-05-09T07:24:34.680Z,9.95
2023-05-09T07:27:03.737Z,9.82
2023-05-09T07:29:30.565Z,8.93
2023-05-09T07:31:57.365Z,10.15
2023-05-09T07:34:25.287Z,9.80
2023-05-09T07:36:51.867Z,6.38
2023-05-09T07:39:18.441Z,6.13
2023-05-09T07:41:45.973Z,5.57
2023-05-09T07:44:14.301Z,5.80
2023-05-09T07:46:41.992Z,6.05
2023-05-09T07:49:08.643Z,8.23
2023-05-09T07:51:35.516Z,6.20
2023-05-09T07:54:02.247Z,5.47
2023-05-09T07:56:28.898Z,6.53
2023-05-09T07:58:55.943Z,6.97
2023-05-09T08:01:22.641Z,6.97
2023-05-09T08:03:49.376Z,7.18
2023-05-09T08:06:16.207Z,7.25
2023-05-09T08:08:42.772Z,8.00
2023-05-09T08:11:09.327Z,7.88
2023-05-09T08:13:36.138Z,6.55
2023-05-09T08:16:02.844Z,6.65
2023-05-09T08:18:29.495Z,6.10
2023-05-09T08:20:56.186Z,5.60
2023-05-09T08:23:25.529Z,5.50
2023-05-09T08:25:55.293Z,5.30
2023-05-09T08:28:24.186Z,5.10
2023-05-09T08:30:51.642Z,5.53
2023-05-09T08:33:18.273Z,4.53
2023-05-09T08:35:44.953Z,4.43
2023-05-09T08:38:11.582Z,4.35
2023-05-09T08:40:38.265Z,4.80
2023-05-09T08:43:06.753Z,3.97
2023-05-09T08:45:36.029Z,4.15
2023-05-09T08:48:03.522Z,4.27
2023-05-09T08:50:30.348Z,4.10
2023-05-09T08:52:57.008Z,3.83
2023-05-09T08:55:23.641Z,4.13
2023-05-09T08:57:50.286Z,4.30
2023-05-09T09:00:20.222Z,3.58
2023-05-09T09:02:47.452Z,3.63
2023-05-09T09:05:34.150Z,3.42
2023-05-09T09:08:00.764Z,3.53
2023-05-09T09:10:32.068Z,3.38
2023-05-09T09:13:00.123Z,3.08
2023-05-09T09:15:29.996Z,3.15
2023-05-09T09:17:58.890Z,3.53
2023-05-09T09:20:27.454Z,3.30
2023-05-09T09:23:00.978Z,2.95
2023-05-09T09:25:27.564Z,2.88
2023-05-09T09:27:54.144Z,3.15
2023-05-09T09:30:23.674Z,2.67
2023-05-09T09:32:50.331Z,3.33
2023-05-09T09:35:17.138Z,3.60
2023-05-09T09:37:43.793Z,3.25
2023-05-09T09:40:12.334Z,2.50
2023-05-09T09:42:44.417Z,2.15
2023-05-09T09:45:11.733Z,1.85
2023-05-09T09:47:38.284Z,2.40
2023-05-09T09:50:14.281Z,2.50
2023-05-09T09:52:49.615Z,2.17
2023-05-09T09:55:16.734Z,2.78
2023-05-09T09:57:46.476Z,2.80
2023-05-09T10:00:15.941Z,2.30
2023-05-09T10:02:53.773Z,2.30
2023-05-09T10:05:31.076Z,2.17
2023-05-09T10:07:59.402Z,2.20
2023-05-09T10:10:30.542Z,2.53
2023-05-09T10:12:58.902Z,2.83
2023-05-09T10:15:27.654Z,2.90
2023-05-09T10:17:57.419Z,2.70
2023-05-09T10:20:25.058Z,2.50
2023-05-09T10:22:56.882Z,2.35
2023-05-09T10:25:46.525Z,2.60
2023-05-09T10:28:15.470Z,2.80
2023-05-09T10:31:02.028Z,3.30
2023-05-09T10:33:38.032Z,2.40
2023-05-09T10:36:04.949Z,2.80
2023-05-09T10:38:31.534Z,3.10
2023-05-09T10:40:58.353Z,2.97
2023-05-09T10:43:25.428Z,2.40
2023-05-09T10:45:52.511Z,3.03
2023-05-09T10:48:19.205Z,2.95
2023-05-09T10:50:46.266Z,2.90
2023-05-09T10:53:17.766Z,2.97
2023-05-09T10:55:47.411Z,2.65
2023-05-09T10:58:33.237Z,2.70
2023-05-09T11:01:01.363Z,2.42
2023-05-09T11:03:29.745Z,2.30
2023-05-09T11:05:58.001Z,2.50
2023-05-09T11:08:26.997Z,2.53
2023-05-09T11:10:58.069Z,2.30
2023-05-09T11:13:27.396Z,2.30
2023-05-09T11:15:54.254Z,2.50
2023-05-09T11:18:21.198Z,2.55
2023-05-09T11:20:49.320Z,2.60
2023-05-09T11:23:17.458Z,2.20
2023-05-09T11:25:46.597Z,2.35
2023-05-09T11:28:29.861Z,2.90
2023-05-09T11:31:17.617Z,2.53
2023-05-09T11:33:46.947Z,2.40
2023-05-09T11:36:25.292Z,2.70
2023-05-09T11:39:11.472Z,2.70
2023-05-09T11:41:46.775Z,2.67
2023-05-09T11:44:18.494Z,3.00
2023-05-09T11:46:46.221Z,2.65
2023-05-09T11:49:13.532Z,2.70
2023-05-09T11:51:40.510Z,2.70
2023-05-09T11:54:10.495Z,2.70
2023-05-09T11:56:38.653Z,2.80
2023-05-09T11:59:05.361Z,2.40
2023-05-09T12:01:31.940Z,2.50
2023-05-09T12:03:59.267Z,2.30
2023-05-09T12:06:26.247Z,2.10
2023-05-09T12:08:55.523Z,2.25
2023-05-09T12:11:22.356Z,2.20
2023-05-09T12:13:49.925Z,2.42
2023-05-09T12:16:18.008Z,2.20
2023-05-09T12:18:51.706Z,2.35
2023-05-09T12:21:19.345Z,2.30
2023-05-09T12:23:49.771Z,2.30
2023-05-09T12:26:18.191Z,2.28
2023-05-09T12:28:44.869Z,2.20
2023-05-09T12:31:12.394Z,2.08
2023-05-09T12:33:39.604Z,2.20
2023-05-09T12:36:12.604Z,1.90
2023-05-09T12:38:39.413Z,1.80
2023-05-09T12:41:18.251Z,2.10
2023-05-09T12:43:55.035Z,1.90
2023-05-09T12:46:21.954Z,1.60
2023-05-09T12:48:49.375Z,1.80
2023-05-09T12:51:22.655Z,1.67
2023-05-09T12:53:49.446Z,1.75
2023-05-09T12:56:20.357Z,2.05
2023-05-09T12:58:51.599Z,1.90
2023-05-09T13:01:27.983Z,1.67
2023-05-09T13:04:06.050Z,1.90
2023-05-09T13:06:33.448Z,1.90
2023-05-09T13:09:01.683Z,1.83
2023-05-09T13:11:28.864Z,1.52
2023-05-09T13:13:55.638Z,1.92
2023-05-09T13:16:22.594Z,1.75
2023-05-09T13:18:49.330Z,1.70
2023-05-09T13:21:16.105Z,1.40
2023-05-09T13:23:44.066Z,1.80
2023-05-09T13:26:10.643Z,1.50
2023-05-09T13:28:37.233Z,1.55
2023-05-09T13:31:04.100Z,1.60
2023-05-09T13:33:30.811Z,1.50
2023-05-09T13:35:57.700Z,1.67
2023-05-09T13:38:25.504Z,1.60
2023-05-09T13:40:52.247Z,1.50
2023-05-09T13:43:18.816Z,1.73
2023-05-09T13:45:45.737Z,1.70
2023-05-09T13:48:12.471Z,1.45
2023-05-09T13:50:39.122Z,1.80
2023-05-09T13:53:05.806Z,1.88
2023-05-09T13:55:34.361Z,1.50
2023-05-09T13:58:00.916Z,1.80
2023-05-09T14:00:27.674Z,1.73
2023-05-09T14:02:54.676Z,1.90
2023-05-09T14:05:21.576Z,1.60
2023-05-09T14:07:48.404Z,1.80
2023-05-09T14:10:15.730Z,2.13
2023-05-09T14:12:44.314Z,1.83
2023-05-09T14:15:11.426Z,2.00
2023-05-09T14:17:38.386Z,1.50
2023-05-09T14:20:06.450Z,1.90
2023-05-09T14:22:33.108Z,2.15
2023-05-09T14:24:59.809Z,1.70
2023-05-09T14:27:26.546Z,1.85
2023-05-09T14:29:53.233Z,2.00
2023-05-09T14:32:19.841Z,2.03
2023-05-09T14:34:49.297Z,1.80
2023-05-09T14:37:16.025Z,1.80
2023-05-09T14:39:45.017Z,2.10
2023-05-09T14:42:14.110Z,2.10
2023-05-09T14:44:41.460Z,1.87
2023-05-09T14:47:09.010Z,1.73
2023-05-09T14:49:36.779Z,1.90
2023-05-09T14:52:03.461Z,1.75
2023-05-09T14:54:30.194Z,1.90
2023-05-09T14:56:57.341Z,2.00
2023-05-09T14:59:24.112Z,2.17
2023-05-09T15:01:51.716Z,1.90
2023-05-09T15:04:18.398Z,2.55
2023-05-09T15:06:45.805Z,2.47
2023-05-09T15:09:12.995Z,2.55
2023-05-09T15:11:47.867Z,2.60
2023-05-09T15:14:15.274Z,2.70
2023-05-09T15:16:42.114Z,2.80
2023-05-09T15:19:08.845Z,3.05
2023-05-09T15:21:35.565Z,2.80
2023-05-09T15:24:02.469Z,3.00
2023-05-09T15:26:29.341Z,3.35
2023-05-09T15:28:56.016Z,3.22
2023-05-09T15:31:23.962Z,3.17
2023-05-09T15:33:50.933Z,3.80
2023-05-09T15:36:17.626Z,3.47
2023-05-09T15:38:48.299Z,4.07
2023-05-09T15:41:15.935Z,3.88
2023-05-09T15:43:42.546Z,4.07
2023-05-09T15:46:09.277Z,3.75
2023-05-09T15:48:36.348Z,3.80
2023-05-09T15:51:04.105Z,3.85
2023-05-09T15:53:31.046Z,3.88
2023-05-09T15:55:57.905Z,3.72
2023-05-09T15:58:24.810Z,4.03
2023-05-09T16:00:51.485Z,3.95
2023-05-09T16:03:18.739Z,4.63
2023-05-09T16:05:45.497Z,4.63
2023-05-09T16:08:12.454Z,5.20
2023-05-09T16:10:39.234Z,4.55
2023-05-09T16:13:05.990Z,4.45
2023-05-09T16:15:32.868Z,4.47
2023-05-09T16:17:59.621Z,5.30
2023-05-09T16:20:26.190Z,5.43
2023-05-09T16:22:52.853Z,3.67
2023-05-09T16:25:19.611Z,4.07
2023-05-09T16:27:46.204Z,3.40
2023-05-09T16:30:13.625Z,2.38
2023-05-09T16:32:40.383Z,2.78
2023-05-09T16:35:07.641Z,3.17
2023-05-09T16:37:35.641Z,3.10
2023-05-09T16:40:02.850Z,3.92
2023-05-09T16:42:29.557Z,21.38
2023-05-09T16:44:57.422Z,22.35
2023-05-09T16:47:24.186Z,30.38
2023-05-09T16:49:50.912Z,15.95
2023-05-09T16:52:17.550Z,6.13
2023-05-09T16:54:44.146Z,8.10
2023-05-09T16:57:10.879Z,5.38
2023-05-09T16:59:37.534Z,6.38
2023-05-09T17:02:04.429Z,5.47
2023-05-09T17:04:31.482Z,4.30
2023-05-09T17:06:58.243Z,3.28
2023-05-09T17:09:25.808Z,3.53
2023-05-09T17:11:52.397Z,4.47
2023-05-09T17:14:18.980Z,3.75
2023-05-09T17:16:45.634Z,3.50
2023-05-09T17:19:12.302Z,3.72
2023-05-09T17:21:41.401Z,3.47
2023-05-09T17:24:09.472Z,3.40
2023-05-09T17:26:36.183Z,3.58
2023-05-09T17:29:03.686Z,3.70
2023-05-09T17:31:30.840Z,3.20
2023-05-09T17:33:57.559Z,2.88
2023-05-09T17:36:24.195Z,2.47
2023-05-09T17:38:50.863Z,2.90
2023-05-09T17:41:17.494Z,2.95
2023-05-09T17:43:44.328Z,2.88
2023-05-09T17:46:10.979Z,2.83
2023-05-09T17:48:37.604Z,3.25
2023-05-09T17:51:04.169Z,3.20
2023-05-09T17:53:31.121Z,2.60
2023-05-09T17:55:58.152Z,2.35
2023-05-09T17:58:24.890Z,2.35
2023-05-09T18:00:55.104Z,2.55
2023-05-09T18:03:21.938Z,2.05
2023-05-09T18:05:48.669Z,2.20
2023-05-09T18:08:15.266Z,2.20
2023-05-09T18:10:41.946Z,1.85
2023-05-09T18:13:08.738Z,2.05
2023-05-09T18:15:38.064Z,2.10
2023-05-09T18:18:06.213Z,2.30
2023-05-09T18:20:33.658Z,2.05
2023-05-09T18:23:00.327Z,2.30
2023-05-09T18:25:27.002Z,2.60
2023-05-09T18:27:53.708Z,2.15
2023-05-09T18:30:21.816Z,2.28
2023-05-09T18:32:48.489Z,2.55
2023-05-09T18:35:15.894Z,2.33
2023-05-09T18:37:42.492Z,2.45
2023-05-09T18:40:14.578Z,2.20
2023-05-09T18:42:42.107Z,2.20
2023-05-09T18:45:09.925Z,2.50
2023-05-09T18:47:37.345Z,2.10
2023-05-09T18:50:05.470Z,2.30
2023-05-09T18:52:32.286Z,2.30
2023-05-09T18:54:58.908Z,2.50
2023-05-09T18:57:26.057Z,2.38
2023-05-09T18:59:52.889Z,2.38
2023-05-09T19:02:20.467Z,2.13
2023-05-09T19:04:48.076Z,2.50
2023-05-09T19:07:15.019Z,2.53
2023-05-09T19:09:41.852Z,3.63
2023-05-09T19:12:09.655Z,1.77
2023-05-09T19:14:37.736Z,1.60
2023-05-09T19:17:05.715Z,0.77
2023-05-09T19:19:32.553Z,0.80
2023-05-09T19:22:00.406Z,0.70
2023-05-09T19:24:27.341Z,0.75
2023-05-09T19:26:53.891Z,0.80
2023-05-09T19:29:20.450Z,0.77
2023-05-09T19:31:47.067Z,0.90
2023-05-09T19:34:13.739Z,0.68
2023-05-09T19:36:40.374Z,1.05
2023-05-09T19:39:08.790Z,0.80
2023-05-09T19:41:35.462Z,0.70
2023-05-09T19:44:02.146Z,1.40
2023-05-09T19:46:28.821Z,1.45
2023-05-09T19:48:55.500Z,0.90
2023-05-09T19:51:22.085Z,0.65
2023-05-09T19:53:48.725Z,0.80
2023-05-09T19:56:15.547Z,0.70
2023-05-09T19:58:42.254Z,0.73
2023-05-09T20:01:09.528Z,0.60
2023-05-09T20:03:37.010Z,0.80
2023-05-09T20:06:04.129Z,0.60
2023-05-09T20:08:31.105Z,0.70
2023-05-09T20:10:59.494Z,0.60
2023-05-09T20:13:27.405Z,0.60
2023-05-09T20:15:54.102Z,0.70
2023-05-09T20:18:20.802Z,0.55
2023-05-09T20:20:47.389Z,0.65
2023-05-09T20:23:14.212Z,0.60
2023-05-09T20:25:44.068Z,0.70
2023-05-09T20:28:12.283Z,0.80
2023-05-09T20:30:38.867Z,0.75
2023-05-09T20:33:05.587Z,0.70
2023-05-09T20:35:32.428Z,0.88
2023-05-09T20:37:59.041Z,1.08
2023-05-09T20:40:25.633Z,0.95
2023-05-09T20:42:52.709Z,1.10
2023-05-09T20:45:19.417Z,1.00
2023-05-09T20:47:46.199Z,1.00
2023-05-09T20:50:12.969Z,0.90
2023-05-09T20:52:39.593Z,1.02
2023-05-09T20:55:06.416Z,1.30
2023-05-09T20:57:33.721Z,1.30
2023-05-09T21:00:00.337Z,1.50
2023-05-09T21:02:27.933Z,2.15
2023-05-09T21:04:54.613Z,1.70
2023-05-09T21:07:21.700Z,1.50
2023-05-09T21:09:48.364Z,2.00
2023-05-09T21:12:15.177Z,1.90
2023-05-09T21:14:41.858Z,1.80
2023-05-09T21:17:08.619Z,1.40
2023-05-09T21:19:35.582Z,1.80
2023-05-09T21:22:02.779Z,2.13
2023-05-09T21:24:29.441Z,2.25
2023-05-09T21:26:56.059Z,2.10
2023-05-09T21:29:22.677Z,1.95
2023-05-09T21:31:49.292Z,2.10
2023-05-09T21:34:15.911Z,2.05
2023-05-09T21:36:42.476Z,2.15
2023-05-09T21:39:09.612Z,2.15
2023-05-09T21:41:37.163Z,2.20
2023-05-09T21:44:03.922Z,2.00
2023-05-09T21:46:32.143Z,2.40
2023-05-09T21:48:59.729Z,2.53
2023-05-09T21:51:26.880Z,2.70
2023-05-09T21:53:53.422Z,2.65
2023-05-09T21:56:20.689Z,2.65
2023-05-09T21:58:47.291Z,2.63
2023-05-09T22:01:15.666Z,2.83
2023-05-09T22:03:43.100Z,2.88
2023-05-09T22:06:09.741Z,3.22
2023-05-09T22:08:36.331Z,3.00
2023-05-09T22:11:03.005Z,3.63
2023-05-09T22:13:29.738Z,2.72
2023-05-09T22:15:57.497Z,3.22
2023-05-09T22:18:24.149Z,2.70
2023-05-09T22:20:50.773Z,2.70
2023-05-09T22:23:17.322Z,2.95
2023-05-09T22:25:43.913Z,2.35
2023-05-09T22:28:10.595Z,2.50
2023-05-09T22:30:37.341Z,2.58
2023-05-09T22:33:03.964Z,2.60
2023-05-09T22:35:30.625Z,2.60
2023-05-09T22:37:57.450Z,2.40
2023-05-09T22:40:24.128Z,2.42
2023-05-09T22:42:50.693Z,2.63
2023-05-09T22:45:17.274Z,2.80
2023-05-09T22:47:44.446Z,2.90
2023-05-09T22:50:12.223Z,2.78
2023-05-09T22:52:38.846Z,2.97
2023-05-09T22:55:05.898Z,3.13
2023-05-09T22:57:32.636Z,2.70
2023-05-09T22:59:59.211Z,2.92
2023-05-09T23:02:25.893Z,2.80
2023-05-09T23:04:52.500Z,2.85
2023-05-09T23:07:19.189Z,3.80
2023-05-09T23:09:45.792Z,2.60
2023-05-09T23:12:12.362Z,2.33
2023-05-09T23:14:39.096Z,2.60
2023-05-09T23:17:05.647Z,2.33
2023-05-09T23:19:32.722Z,2.20
2023-05-09T23:21:59.404Z,2.40
2023-05-09T23:24:26.022Z,2.25
2023-05-09T23:26:53.759Z,2.28
2023-05-09T23:29:20.402Z,2.25
2023-05-09T23:31:47.159Z,2.50
2023-05-09T23:34:13.820Z,2.20
2023-05-09T23:36:40.434Z,2.40
2023-05-09T23:39:07.100Z,2.45
2023-05-09T23:41:33.710Z,2.45
2023-05-09T23:44:01.791Z,2.70
2023-05-09T23:46:28.492Z,2.78
2023-05-09T23:48:55.586Z,2.50
2023-05-09T23:51:22.581Z,2.75
2023-05-09T23:53:49.288Z,2.78
2023-05-09T23:56:15.964Z,2.90
2023-05-09T23:58:43.002Z,3.15
